Aérodrome :
LOGIN :

S'inscrire | Disclaimer

   EN    FR    IT 

 










Légende :    VFR   VFR Marginal   IFR   IFR Intensif   IFR Très Intensif
Visi : 
Plafond : 
>= 8 km
>= 3000ft
5 à 8 km
1000 à 3000 ft
1500m à 5 km
500 à 1000 ft
800 à 1500m
200 à 500 ft
< 800m
< 200 ft
Symboles :   Orages  Brouillard  Fortes neiges  Fortes précipitations  Vent > 20 kt
SIGMETs :   Divers  Orages  Givrage  Turbulence  Onde Orograph.  Cendres Volcan.







- Altitude de l'aérodrome : -11 ft
- Code IATA : AMS


EHAM - Amsterdam Schiphol

DERNIER METAR :
  • 222025Z 32002KT CAVOK 10/10 Q1022 NOSIG

METARs EXPIRÉS :
  • 221955Z 32003KT 270V010 9999 FEW025 10/09 Q1022 NOSIG
  • 221925Z 31003KT CAVOK 10/09 Q1022 NOSIG
  • 221855Z 31004KT 9999 FEW025 11/09 Q1022 NOSIG
  • 221825Z 30005KT 9999 FEW025 12/10 Q1022 NOSIG
  • 221755Z 31005KT 280V340 9999 FEW025 13/10 Q1022 NOSIG
  • 221725Z 31006KT 9999 FEW025 FEW027TCU 14/11 Q1021 NOSIG

TAF TAF EHAM
Valide du 22 à 18h jusqu'au 24 à 00h UTC


221645Z 2218/2324 VRB03KT CAVOK
BECMG 2222/2224 7000 MIFG NSC
TEMPO 2300/2307 1200 BCFG
PROB40
TEMPO 2302/2307 0400
BECMG 2306/2308 9999 NSW FEW025
BECMG 2316/2319 07005KT CAVOK
Pas de NOTAMs connus pour ce terrain.



MET'MAP, la Météo Aéronautique d'un coup d'oeil ! - Copyright ORBIFLY Décembre 2007 - Disclaimer

ORBIFLY MET'MAP TEAM :

Programmation & Développement : Alexandra Zaïnal
Conception & Développement : Baudouin d'Aumeries
Co-Programmation & Développement : Marc-Olivier Méhu
Soutien technique & logistique : Manuel Goepfert

Contact : metmap@orbifly.com




SOURCES & CREDITS :

   NOAA